Terminal Aerodrome Forecast
Issued by NWS

Home | Current Version | Previous Version | Text Only | Print | Product List | Glossary On
Versions: 1 2 3 4 5 6 7 8 9 10 11 12 13 14 15 16 17 18 19 20 21 22 23 24 25 26 27 28 29 30 31 32 33 34
667
FTUS43 KDLH 250224 AAA
TAFHIB
TAF AMD
KHIB 250224Z 2502/2524 14008KT P6SM OVC010
     FM250500 15010KT 3SM -SHRA BR BKN009 OVC021
      TEMPO 2505/2508 1SM -TSRA BR BKN006 OVC025CB
     FM251200 17008KT P6SM VCSH OVC009
     FM251600 20008KT P6SM BKN015
     FM252000 22009KT P6SM VCSH BKN028=

USA.gov is the U.S. government's official web portal to all federal, state and local government web resources and services.